createdAt,value
2023-02-04T00:00:42.700Z,2.85
2023-02-04T00:02:44.253Z,2.84
2023-02-04T00:04:45.723Z,2.77
2023-02-04T00:06:47.214Z,2.77
2023-02-04T00:08:48.690Z,2.81
2023-02-04T00:10:50.170Z,2.85
2023-02-04T00:12:51.635Z,2.91
2023-02-04T00:14:53.054Z,2.92
2023-02-04T00:16:54.525Z,2.91
2023-02-04T00:18:55.993Z,2.82
2023-02-04T00:20:57.481Z,2.64
2023-02-04T00:22:58.963Z,2.60
2023-02-04T00:25:00.479Z,2.56
2023-02-04T00:27:02.387Z,2.57
2023-02-04T00:29:03.820Z,2.60
2023-02-04T00:31:05.401Z,2.55
2023-02-04T00:33:06.846Z,2.50
2023-02-04T00:35:08.316Z,2.34
2023-02-04T00:37:09.779Z,2.30
2023-02-04T00:39:11.337Z,1.87
2023-02-04T00:41:12.838Z,1.91
2023-02-04T00:43:14.276Z,1.93
2023-02-04T00:45:15.805Z,2.00
2023-02-04T00:47:17.294Z,1.89
2023-02-04T00:49:18.791Z,1.83
2023-02-04T00:51:20.456Z,1.52
2023-02-04T00:53:21.972Z,1.57
2023-02-04T00:55:23.520Z,1.84
2023-02-04T00:57:25.050Z,2.10
2023-02-04T00:59:26.556Z,2.28
2023-02-04T01:01:28.201Z,2.43
2023-02-04T01:03:29.639Z,2.51
2023-02-04T01:05:31.109Z,2.52
2023-02-04T01:07:32.642Z,2.56
2023-02-04T01:09:34.150Z,2.38
2023-02-04T01:11:36.533Z,2.30
2023-02-04T01:13:38.020Z,2.23
2023-02-04T01:15:39.502Z,2.25
2023-02-04T01:17:41.938Z,2.28
2023-02-04T01:19:43.415Z,2.20
2023-02-04T01:21:44.870Z,2.16
2023-02-04T01:23:46.322Z,2.13
2023-02-04T01:25:47.810Z,2.21
2023-02-04T01:27:49.295Z,2.28
2023-02-04T01:29:50.823Z,2.24
2023-02-04T01:31:52.386Z,2.24
2023-02-04T01:33:53.912Z,2.24
2023-02-04T01:35:55.481Z,2.17
2023-02-04T01:37:56.966Z,1.99
2023-02-04T01:39:58.447Z,1.98
2023-02-04T01:42:01.138Z,2.06
2023-02-04T01:44:02.646Z,2.11
2023-02-04T01:46:04.229Z,2.11
2023-02-04T01:48:06.149Z,2.13
2023-02-04T01:50:08.028Z,2.07
2023-02-04T01:52:10.112Z,2.10
2023-02-04T01:54:14.759Z,2.12
2023-02-04T01:56:18.131Z,2.03
2023-02-04T01:58:19.589Z,2.04
2023-02-04T02:00:25.263Z,1.97
2023-02-04T02:02:44.831Z,1.89
2023-02-04T02:04:46.316Z,1.92
2023-02-04T02:06:49.274Z,1.61
2023-02-04T02:08:50.719Z,1.68
2023-02-04T02:10:52.981Z,1.70
2023-02-04T02:12:54.903Z,1.73
2023-02-04T02:14:56.457Z,1.74
2023-02-04T02:16:58.047Z,1.75
2023-02-04T02:19:00.131Z,1.84
2023-02-04T02:21:03.323Z,1.81
2023-02-04T02:23:13.666Z,1.47
2023-02-04T02:25:15.224Z,1.46
2023-02-04T02:27:16.784Z,1.60
2023-02-04T02:29:18.363Z,1.74
2023-02-04T02:31:20.358Z,1.81
2023-02-04T02:33:22.051Z,1.90
2023-02-04T02:35:23.549Z,1.83
2023-02-04T02:37:25.028Z,1.83
2023-02-04T02:39:26.601Z,1.87
2023-02-04T02:41:28.120Z,1.94
2023-02-04T02:43:29.839Z,2.04
2023-02-04T02:45:31.599Z,2.14
2023-02-04T02:47:33.113Z,2.24
2023-02-04T02:49:37.071Z,2.29
2023-02-04T02:51:38.521Z,2.38
2023-02-04T02:53:39.984Z,2.35
2023-02-04T02:55:41.489Z,2.11
2023-02-04T02:57:42.973Z,2.08
2023-02-04T02:59:44.501Z,2.12
2023-02-04T03:01:46.653Z,2.13
2023-02-04T03:03:49.638Z,2.20
2023-02-04T03:05:52.368Z,2.27
2023-02-04T03:07:53.816Z,2.31
2023-02-04T03:09:55.259Z,2.30
2023-02-04T03:11:56.826Z,1.89
2023-02-04T03:13:58.833Z,1.47
2023-02-04T03:16:00.361Z,1.26
2023-02-04T03:18:01.890Z,1.42
2023-02-04T03:20:04.066Z,1.56
2023-02-04T03:22:05.668Z,1.53
2023-02-04T03:24:07.253Z,1.63
2023-02-04T03:26:08.722Z,1.75
2023-02-04T03:28:10.426Z,1.84
2023-02-04T03:30:11.963Z,1.97
2023-02-04T03:32:13.452Z,2.01
2023-02-04T03:34:14.905Z,2.07
2023-02-04T03:36:16.439Z,2.10
2023-02-04T03:38:19.895Z,2.16
2023-02-04T03:40:21.558Z,2.20
2023-02-04T03:42:23.203Z,2.22
2023-02-04T03:44:26.979Z,2.17
2023-02-04T03:46:28.899Z,2.14
2023-02-04T03:48:30.556Z,2.07
2023-02-04T03:50:32.339Z,1.91
2023-02-04T03:52:34.151Z,1.93
2023-02-04T03:54:35.614Z,2.03
2023-02-04T03:56:37.092Z,2.08
2023-02-04T03:58:38.583Z,2.11
2023-02-04T04:00:40.086Z,2.10
2023-02-04T04:02:41.856Z,2.20
2023-02-04T04:04:43.376Z,2.26
2023-02-04T04:06:44.862Z,2.23
2023-02-04T04:08:46.333Z,2.09
2023-02-04T04:10:47.852Z,1.93
2023-02-04T04:12:49.347Z,1.64
2023-02-04T04:14:50.822Z,1.75
2023-02-04T04:16:52.282Z,1.99
2023-02-04T04:18:53.847Z,2.06
2023-02-04T04:20:55.391Z,2.23
2023-02-04T04:22:56.898Z,2.24
2023-02-04T04:24:58.364Z,2.16
2023-02-04T04:26:59.870Z,2.19
2023-02-04T04:29:01.303Z,2.39
2023-02-04T04:31:02.884Z,2.60
2023-02-04T04:33:04.590Z,2.79
2023-02-04T04:35:06.139Z,2.95
2023-02-04T04:37:07.585Z,3.07
2023-02-04T04:39:09.358Z,3.18
2023-02-04T04:41:10.871Z,3.25
2023-02-04T04:43:12.407Z,3.35
2023-02-04T04:45:14.527Z,3.38
2023-02-04T04:47:16.245Z,3.35
2023-02-04T04:49:17.688Z,3.34
2023-02-04T04:51:19.143Z,3.38
2023-02-04T04:53:20.652Z,3.45
2023-02-04T04:55:22.118Z,3.40
2023-02-04T04:57:23.604Z,3.53
2023-02-04T04:59:25.022Z,3.51
2023-02-04T05:01:26.483Z,3.41
2023-02-04T05:03:27.901Z,3.45
2023-02-04T05:05:29.322Z,3.46
2023-02-04T05:07:30.880Z,3.40
2023-02-04T05:09:32.382Z,3.39
2023-02-04T05:11:33.877Z,3.41
2023-02-04T05:13:35.425Z,3.42
2023-02-04T05:15:37.136Z,3.36
2023-02-04T05:17:38.651Z,3.37
2023-02-04T05:19:40.128Z,3.33
2023-02-04T05:21:41.609Z,3.17
2023-02-04T05:23:43.186Z,3.16
2023-02-04T05:25:44.677Z,3.13
2023-02-04T05:27:46.259Z,3.16
2023-02-04T05:29:47.852Z,3.14
2023-02-04T05:31:49.390Z,3.12
2023-02-04T05:33:50.872Z,2.99
2023-02-04T05:35:52.360Z,3.04
2023-02-04T05:37:53.819Z,2.74
2023-02-04T05:39:55.284Z,2.58
2023-02-04T05:41:56.776Z,2.53
2023-02-04T05:43:58.465Z,2.59
2023-02-04T05:46:00.000Z,2.71
2023-02-04T05:48:01.449Z,2.82
2023-02-04T05:50:02.987Z,2.74
2023-02-04T05:52:04.593Z,2.77
2023-02-04T05:54:06.078Z,2.80
2023-02-04T05:56:07.587Z,2.84
2023-02-04T05:58:09.034Z,2.79
2023-02-04T06:00:11.706Z,2.83
2023-02-04T06:02:13.242Z,2.82
2023-02-04T06:04:16.633Z,2.85
2023-02-04T06:06:18.144Z,2.83
2023-02-04T06:08:19.749Z,2.82
2023-02-04T06:10:21.299Z,2.84
2023-02-04T06:12:22.821Z,2.76
2023-02-04T06:14:24.479Z,2.76
2023-02-04T06:16:25.998Z,2.79
2023-02-04T06:18:27.516Z,2.86
2023-02-04T06:20:29.043Z,2.85
2023-02-04T06:22:30.577Z,2.85
2023-02-04T06:24:32.000Z,2.86
2023-02-04T06:26:33.491Z,2.93
2023-02-04T06:28:34.995Z,2.99
2023-02-04T06:30:37.540Z,3.04
2023-02-04T06:32:39.168Z,3.06
2023-02-04T06:34:40.938Z,3.11
2023-02-04T06:36:42.422Z,3.11
2023-02-04T06:38:43.902Z,3.24
2023-02-04T06:40:49.328Z,3.28
2023-02-04T06:42:50.866Z,3.37
2023-02-04T06:44:52.664Z,3.36
2023-02-04T06:46:54.246Z,3.38
2023-02-04T06:48:56.749Z,3.51
2023-02-04T06:50:58.211Z,3.58
2023-02-04T06:52:59.862Z,3.56
2023-02-04T06:55:01.427Z,3.61
2023-02-04T06:57:09.340Z,3.72
2023-02-04T06:59:11.015Z,3.80
2023-02-04T07:01:12.592Z,3.83
2023-02-04T07:03:14.076Z,3.83
2023-02-04T07:05:15.529Z,3.83
2023-02-04T07:07:17.203Z,3.92
2023-02-04T07:09:18.691Z,3.97
2023-02-04T07:11:20.251Z,4.08
2023-02-04T07:13:21.785Z,4.15
2023-02-04T07:15:23.310Z,4.20
2023-02-04T07:17:24.866Z,4.13
2023-02-04T07:19:26.313Z,4.17
2023-02-04T07:21:27.833Z,4.19
2023-02-04T07:23:29.417Z,4.20
2023-02-04T07:25:30.876Z,4.19
2023-02-04T07:27:32.362Z,4.22
2023-02-04T07:29:33.817Z,4.29
2023-02-04T07:31:35.459Z,4.26
2023-02-04T07:33:37.121Z,4.31
2023-02-04T07:35:38.561Z,4.23
2023-02-04T07:37:40.126Z,4.36
2023-02-04T07:39:41.607Z,4.46
2023-02-04T07:41:43.417Z,4.47
2023-02-04T07:43:44.874Z,4.59
2023-02-04T07:45:46.402Z,4.66
2023-02-04T07:47:47.863Z,4.67
2023-02-04T07:49:49.411Z,4.58
2023-02-04T07:51:50.933Z,4.53
2023-02-04T07:53:52.393Z,4.60
2023-02-04T07:55:53.823Z,4.75
2023-02-04T07:57:55.348Z,4.73
2023-02-04T07:59:56.939Z,4.61
2023-02-04T08:01:58.507Z,4.57
2023-02-04T08:03:59.986Z,4.59
2023-02-04T08:06:01.721Z,4.51
2023-02-04T08:08:03.284Z,4.49
2023-02-04T08:10:05.277Z,4.35
2023-02-04T08:12:06.755Z,4.31
2023-02-04T08:14:08.239Z,4.31
2023-02-04T08:16:11.781Z,4.26
2023-02-04T08:18:13.443Z,4.16
2023-02-04T08:20:14.958Z,4.21
2023-02-04T08:22:16.432Z,4.25
2023-02-04T08:24:18.024Z,4.35
2023-02-04T08:26:19.499Z,4.30
2023-02-04T08:28:21.124Z,4.19
2023-02-04T08:30:22.683Z,4.28
2023-02-04T08:32:24.315Z,4.25
2023-02-04T08:34:25.837Z,4.28
2023-02-04T08:36:27.334Z,4.28
2023-02-04T08:38:29.183Z,4.28
2023-02-04T08:40:31.534Z,4.28
2023-02-04T08:42:34.825Z,4.28
2023-02-04T08:44:36.317Z,4.09
2023-02-04T08:46:37.770Z,4.07
2023-02-04T08:48:39.280Z,4.05
2023-02-04T08:50:40.873Z,4.12
2023-02-04T08:52:42.362Z,4.06
2023-02-04T08:54:43.852Z,4.00
2023-02-04T08:56:45.409Z,4.02
2023-02-04T08:58:48.046Z,4.08
2023-02-04T09:00:49.557Z,4.03
2023-02-04T09:02:51.006Z,4.00
2023-02-04T09:04:52.490Z,4.03
2023-02-04T09:06:54.119Z,3.99
2023-02-04T09:08:55.595Z,3.99
2023-02-04T09:10:57.104Z,4.08
2023-02-04T09:12:58.629Z,4.06
2023-02-04T09:15:00.143Z,4.08
2023-02-04T09:17:01.650Z,4.13
2023-02-04T09:19:03.400Z,4.08
2023-02-04T09:21:04.974Z,4.04
2023-02-04T09:23:10.691Z,4.03
2023-02-04T09:25:12.132Z,4.10
2023-02-04T09:27:13.593Z,4.11
2023-02-04T09:29:15.084Z,4.09
2023-02-04T09:31:17.092Z,4.13
2023-02-04T09:33:18.793Z,4.09
2023-02-04T09:35:20.306Z,4.15
2023-02-04T09:37:21.783Z,4.19
2023-02-04T09:39:23.270Z,4.19
2023-02-04T09:41:24.770Z,4.22
2023-02-04T09:43:26.910Z,4.24
2023-02-04T09:45:29.178Z,4.21
2023-02-04T09:49:50.042Z,4.08
2023-02-04T09:51:51.604Z,4.07
2023-02-04T09:53:54.198Z,4.03
2023-02-04T09:55:55.685Z,4.08
2023-02-04T09:57:57.262Z,4.01
2023-02-04T09:59:58.857Z,4.02
2023-02-04T10:02:01.021Z,3.92
2023-02-04T10:04:02.690Z,3.87
2023-02-04T10:06:04.342Z,3.76
2023-02-04T10:08:05.800Z,3.74
2023-02-04T10:10:07.349Z,3.80
2023-02-04T10:12:08.856Z,3.88
2023-02-04T10:14:13.705Z,3.78
2023-02-04T10:16:16.288Z,3.80
2023-02-04T10:18:24.598Z,3.80
2023-02-04T10:20:26.392Z,3.93
2023-02-04T10:22:27.871Z,3.87
2023-02-04T10:24:30.798Z,4.02
2023-02-04T10:26:32.711Z,3.94
2023-02-04T10:28:34.727Z,3.92
2023-02-04T10:30:41.286Z,3.85
2023-02-04T10:32:44.017Z,3.83
2023-02-04T10:34:45.458Z,3.90
2023-02-04T10:36:48.040Z,3.74
2023-02-04T10:38:59.473Z,3.70
2023-02-04T10:41:01.691Z,3.72
2023-02-04T10:43:16.515Z,3.66
2023-02-04T10:45:36.547Z,3.62
2023-02-04T10:47:38.020Z,3.63
2023-02-04T10:49:39.492Z,3.66
2023-02-04T10:51:40.934Z,3.69
2023-02-04T10:54:17.889Z,3.66
2023-02-04T10:56:20.779Z,3.70
2023-02-04T10:58:27.242Z,3.66
2023-02-04T11:00:30.081Z,3.63
2023-02-04T11:02:40.910Z,3.71
2023-02-04T11:04:42.348Z,3.73
2023-02-04T11:06:43.907Z,3.77
2023-02-04T11:08:45.331Z,3.77
2023-02-04T11:10:46.866Z,3.80
2023-02-04T11:12:54.175Z,3.84
2023-02-04T11:14:56.352Z,3.84
2023-02-04T11:17:01.635Z,3.88
2023-02-04T11:19:09.703Z,3.99
2023-02-04T11:21:33.855Z,3.99
2023-02-04T11:23:36.403Z,4.01
2023-02-04T11:25:40.134Z,3.85
2023-02-04T11:27:42.639Z,3.87
2023-02-04T11:29:44.145Z,3.98
2023-02-04T11:31:56.850Z,3.94
2023-02-04T11:34:19.396Z,3.98
2023-02-04T11:36:20.938Z,4.04
2023-02-04T11:38:25.650Z,4.04
2023-02-04T11:40:27.130Z,4.18
2023-02-04T11:42:43.674Z,4.18
2023-02-04T11:44:52.118Z,4.31
2023-02-04T11:46:56.603Z,4.30
2023-02-04T11:48:58.344Z,4.36
2023-02-04T11:51:00.976Z,4.36
2023-02-04T11:53:02.564Z,4.32
2023-02-04T11:55:04.122Z,4.42
2023-02-04T11:57:05.714Z,4.42
2023-02-04T11:59:07.153Z,4.51
2023-02-04T12:01:17.230Z,4.54
2023-02-04T12:03:23.229Z,4.54
2023-02-04T12:05:35.392Z,4.49
2023-02-04T12:07:37.003Z,4.46
2023-02-04T12:09:46.868Z,4.35
2023-02-04T12:11:52.140Z,4.34
2023-02-04T12:13:54.624Z,4.35
2023-02-04T12:16:00.466Z,4.29
2023-02-04T12:18:07.460Z,4.38
2023-02-04T12:20:09.235Z,4.47
2023-02-04T12:22:10.675Z,4.45
2023-02-04T12:24:12.160Z,4.39
2023-02-04T12:26:13.692Z,4.42
2023-02-04T12:28:15.269Z,4.38
2023-02-04T12:30:18.581Z,4.35
2023-02-04T12:32:20.046Z,4.45
2023-02-04T12:34:21.506Z,4.48
2023-02-04T12:36:23.004Z,4.39
2023-02-04T12:38:24.631Z,4.30
2023-02-04T12:40:26.267Z,4.31
2023-02-04T12:42:27.813Z,4.36
2023-02-04T12:44:29.319Z,4.46
2023-02-04T12:46:30.820Z,4.37
2023-02-04T12:48:32.533Z,4.40
2023-02-04T12:50:34.084Z,4.44
2023-02-04T12:52:37.036Z,4.49
2023-02-04T12:54:38.568Z,4.56
2023-02-04T12:56:40.074Z,4.45
2023-02-04T12:58:41.880Z,4.50
2023-02-04T13:00:43.481Z,4.42
2023-02-04T13:02:45.237Z,4.36
2023-02-04T13:04:46.726Z,4.30
2023-02-04T13:06:48.219Z,4.21
2023-02-04T13:08:49.635Z,4.29
2023-02-04T13:10:52.222Z,4.23
2023-02-04T13:12:53.794Z,4.19
2023-02-04T13:14:55.283Z,4.20
2023-02-04T13:16:56.774Z,4.24
2023-02-04T13:18:58.296Z,4.21
2023-02-04T13:20:59.833Z,4.14
2023-02-04T13:23:01.300Z,4.12
2023-02-04T13:25:04.079Z,4.00
2023-02-04T13:27:05.759Z,4.00
2023-02-04T13:29:07.252Z,4.03
2023-02-04T13:31:08.838Z,4.00
2023-02-04T13:33:10.399Z,4.02
2023-02-04T13:35:12.213Z,3.98
2023-02-04T13:37:13.649Z,4.05
2023-02-04T13:39:15.244Z,3.95
2023-02-04T13:41:16.695Z,3.96
2023-02-04T13:43:18.157Z,3.99
2023-02-04T13:45:19.710Z,3.90
2023-02-04T13:47:21.359Z,3.88
2023-02-04T13:49:22.872Z,3.92
2023-02-04T13:51:24.409Z,3.98
2023-02-04T13:53:31.055Z,3.94
2023-02-04T13:55:32.798Z,3.96
2023-02-04T13:57:34.506Z,3.95
2023-02-04T13:59:36.013Z,3.96
2023-02-04T14:01:37.677Z,3.93
2023-02-04T14:03:39.398Z,4.00
2023-02-04T14:05:40.978Z,4.05
2023-02-04T14:07:42.442Z,4.07
2023-02-04T14:09:44.060Z,4.03
2023-02-04T14:11:45.619Z,4.06
2023-02-04T14:13:47.121Z,4.12
2023-02-04T14:15:48.630Z,4.12
2023-02-04T14:17:50.192Z,4.09
2023-02-04T14:19:51.689Z,4.08
2023-02-04T14:21:54.143Z,4.04
2023-02-04T14:23:55.656Z,4.00
2023-02-04T14:25:57.166Z,3.65
2023-02-04T14:28:00.185Z,3.19
2023-02-04T14:30:01.839Z,3.05
2023-02-04T14:32:03.528Z,3.06
2023-02-04T14:34:05.017Z,2.96
2023-02-04T14:36:06.688Z,2.88
2023-02-04T14:38:08.167Z,2.90
2023-02-04T14:40:10.600Z,2.87
2023-02-04T14:42:12.116Z,2.93
2023-02-04T14:44:19.185Z,2.94
2023-02-04T14:46:20.688Z,2.87
2023-02-04T14:48:22.186Z,2.79
2023-02-04T14:50:27.156Z,2.81
2023-02-04T14:52:28.581Z,2.80
2023-02-04T14:54:30.059Z,2.89
2023-02-04T14:56:31.544Z,2.97
2023-02-04T14:58:33.039Z,2.94
2023-02-04T15:00:34.960Z,2.96
2023-02-04T15:02:36.586Z,2.94
2023-02-04T15:04:38.582Z,2.91
2023-02-04T15:06:40.044Z,2.92
2023-02-04T15:08:41.660Z,2.95
2023-02-04T15:10:43.399Z,2.96
2023-02-04T15:12:45.147Z,2.97
2023-02-04T15:14:46.694Z,3.03
2023-02-04T15:16:48.736Z,3.10
2023-02-04T15:18:50.214Z,3.11
2023-02-04T15:20:51.726Z,3.06
2023-02-04T15:22:56.283Z,3.06
2023-02-04T15:24:57.733Z,3.07
2023-02-04T15:27:17.690Z,2.99
2023-02-04T15:29:37.776Z,3.01
2023-02-04T15:31:39.344Z,2.80
2023-02-04T15:33:40.876Z,2.68
2023-02-04T15:35:42.676Z,2.36
2023-02-04T15:37:44.170Z,2.30
2023-02-04T15:39:45.731Z,2.27
2023-02-04T15:41:47.308Z,2.25
2023-02-04T15:43:49.029Z,2.25
2023-02-04T15:45:50.608Z,2.24
2023-02-04T15:47:52.211Z,2.27
2023-02-04T15:49:53.728Z,2.31
2023-02-04T15:51:55.216Z,2.28
2023-02-04T15:53:56.712Z,2.25
2023-02-04T15:55:58.181Z,2.24
2023-02-04T15:57:59.725Z,2.24
2023-02-04T16:00:01.285Z,2.29
2023-02-04T16:02:02.779Z,2.24
2023-02-04T16:04:04.307Z,2.33
2023-02-04T16:06:05.880Z,2.26
2023-02-04T16:08:07.436Z,2.13
2023-02-04T16:10:09.141Z,2.14
2023-02-04T16:12:10.629Z,2.06
2023-02-04T16:14:12.086Z,2.08
2023-02-04T16:16:13.627Z,2.03
2023-02-04T16:18:15.193Z,1.99
2023-02-04T16:20:17.059Z,1.93
2023-02-04T16:22:18.608Z,1.91
2023-02-04T16:24:21.318Z,1.89
2023-02-04T16:26:22.872Z,1.88
2023-02-04T16:28:25.794Z,1.70
2023-02-04T16:30:27.359Z,1.74
2023-02-04T16:32:28.850Z,1.75
2023-02-04T16:34:30.381Z,1.71
2023-02-04T16:36:31.939Z,1.71
2023-02-04T16:38:33.424Z,1.78
2023-02-04T16:40:35.294Z,1.57
2023-02-04T16:42:36.919Z,1.56
2023-02-04T16:44:38.532Z,1.37
2023-02-04T16:46:39.979Z,1.50
2023-02-04T16:48:41.488Z,1.46
2023-02-04T16:50:43.146Z,1.41
2023-02-04T16:52:44.650Z,1.33
2023-02-04T16:54:46.167Z,1.31
2023-02-04T16:56:47.664Z,1.25
2023-02-04T16:58:49.752Z,1.30
2023-02-04T17:00:51.253Z,1.32
2023-02-04T17:02:52.776Z,1.33
2023-02-04T17:04:54.345Z,1.43
2023-02-04T17:06:56.685Z,1.30
2023-02-04T17:08:58.303Z,1.34
2023-02-04T17:11:18.437Z,1.43
2023-02-04T17:13:19.957Z,1.28
2023-02-04T17:15:21.409Z,1.23
2023-02-04T17:17:22.912Z,1.20
2023-02-04T17:19:25.350Z,1.25
2023-02-04T17:21:27.375Z,1.26
2023-02-04T17:23:28.920Z,1.22
2023-02-04T17:25:30.704Z,1.21
2023-02-04T17:27:32.443Z,1.31
2023-02-04T17:29:33.903Z,1.26
2023-02-04T17:31:35.605Z,1.31
2023-02-04T17:33:37.252Z,1.30
2023-02-04T17:35:38.683Z,1.31
2023-02-04T17:37:40.953Z,1.25
2023-02-04T17:39:42.427Z,1.28
2023-02-04T17:41:43.877Z,1.26
2023-02-04T17:43:45.319Z,1.28
2023-02-04T17:45:46.976Z,1.27
2023-02-04T17:47:48.423Z,1.21
2023-02-04T17:49:49.858Z,1.34
2023-02-04T17:51:51.316Z,1.30
2023-02-04T17:53:52.740Z,1.35
2023-02-04T17:55:54.192Z,1.33
2023-02-04T17:57:56.508Z,1.25
2023-02-04T17:59:57.975Z,1.25
2023-02-04T18:01:59.720Z,1.28
2023-02-04T18:04:01.328Z,1.20
2023-02-04T18:06:05.535Z,1.25
2023-02-04T18:08:16.073Z,1.19
2023-02-04T18:10:19.789Z,1.19
2023-02-04T18:12:21.281Z,1.22
2023-02-04T18:14:26.368Z,1.15
2023-02-04T18:16:30.390Z,1.21
2023-02-04T18:18:32.924Z,1.16
2023-02-04T18:20:34.414Z,1.19
2023-02-04T18:22:35.879Z,1.11
2023-02-04T18:24:39.690Z,1.01
2023-02-04T18:26:45.126Z,1.00
2023-02-04T18:28:47.148Z,1.04
2023-02-04T18:30:50.959Z,1.07
2023-02-04T18:32:54.305Z,0.94
2023-02-04T18:34:55.837Z,1.07
2023-02-04T18:36:57.278Z,1.19
2023-02-04T18:38:58.802Z,1.16
2023-02-04T18:41:03.525Z,1.29
2023-02-04T18:43:07.964Z,1.32
2023-02-04T18:45:29.029Z,1.23
2023-02-04T18:47:31.915Z,1.22
2023-02-04T18:49:33.926Z,1.17
2023-02-04T18:51:38.236Z,1.21
2023-02-04T18:53:39.743Z,1.29
2023-02-04T18:55:45.033Z,1.38
2023-02-04T18:57:46.496Z,1.49
2023-02-04T18:59:47.946Z,1.59
2023-02-04T19:01:49.580Z,1.60
2023-02-04T19:03:51.021Z,1.58
2023-02-04T19:05:53.369Z,1.65
2023-02-04T19:08:04.305Z,1.66
2023-02-04T19:10:26.144Z,1.66
2023-02-04T19:12:27.649Z,1.60
2023-02-04T19:14:35.240Z,1.50
2023-02-04T19:16:37.120Z,1.50
2023-02-04T19:18:44.396Z,1.52
2023-02-04T19:20:45.894Z,1.50
2023-02-04T19:22:49.654Z,1.45
2023-02-04T19:24:51.452Z,1.36
2023-02-04T19:26:59.492Z,1.15
2023-02-04T19:29:01.341Z,1.11
2023-02-04T19:31:03.997Z,1.05
2023-02-04T19:33:16.349Z,1.09
2023-02-04T19:35:19.287Z,0.98
2023-02-04T19:37:26.671Z,1.06
2023-02-04T19:39:28.177Z,1.09
2023-02-04T19:41:45.269Z,1.08
2023-02-04T19:43:46.825Z,1.01
2023-02-04T19:45:50.916Z,1.01
2023-02-04T19:47:56.404Z,1.02
2023-02-04T19:50:21.163Z,0.95
2023-02-04T19:52:35.602Z,1.01
2023-02-04T19:54:37.715Z,1.02
2023-02-04T19:56:39.700Z,1.06
2023-02-04T19:58:44.330Z,0.98
2023-02-04T20:01:06.384Z,0.96
2023-02-04T20:03:23.224Z,0.79
2023-02-04T20:05:26.863Z,0.75
2023-02-04T20:07:29.195Z,0.74
2023-02-04T20:09:31.264Z,0.80
2023-02-04T20:11:33.125Z,0.84
2023-02-04T20:13:34.569Z,0.84
2023-02-04T20:15:36.311Z,0.80
2023-02-04T20:17:38.103Z,0.65
2023-02-04T20:19:41.200Z,0.59
2023-02-04T20:21:42.645Z,0.74
2023-02-04T20:23:44.147Z,0.74
2023-02-04T20:25:47.222Z,0.70
2023-02-04T20:27:49.645Z,0.66
2023-02-04T20:29:52.342Z,0.60
2023-02-04T20:31:55.732Z,0.56
2023-02-04T20:33:59.349Z,0.45
2023-02-04T20:36:19.559Z,0.54
2023-02-04T20:38:21.020Z,0.49
2023-02-04T20:40:23.668Z,0.30
2023-02-04T20:42:26.841Z,0.35
2023-02-04T20:44:28.918Z,0.31
2023-02-04T20:46:30.618Z,0.32
2023-02-04T20:48:32.956Z,0.22
2023-02-04T20:50:38.763Z,0.18
2023-02-04T20:52:40.238Z,0.13
2023-02-04T20:54:41.723Z,0.05
2023-02-04T20:56:43.423Z,-0.11
2023-02-04T20:58:45.336Z,-0.25
2023-02-04T21:00:48.825Z,-0.27
2023-02-04T21:02:50.318Z,-0.50
2023-02-04T21:04:54.106Z,-0.42
2023-02-04T21:06:58.099Z,-0.37
2023-02-04T21:08:59.757Z,-0.38
2023-02-04T21:11:01.493Z,-0.35
2023-02-04T21:13:03.014Z,-0.53
2023-02-04T21:15:04.569Z,-0.55
2023-02-04T21:17:06.215Z,-0.65
2023-02-04T21:19:07.674Z,-0.90
2023-02-04T21:21:09.410Z,-0.91
2023-02-04T21:23:10.940Z,-0.84
2023-02-04T21:25:12.458Z,-1.03
2023-02-04T21:27:14.271Z,-0.86
2023-02-04T21:29:15.879Z,-0.80
2023-02-04T21:31:17.486Z,-0.75
2023-02-04T21:33:19.149Z,-0.71
2023-02-04T21:35:24.471Z,-0.83
2023-02-04T21:37:26.002Z,-0.78
2023-02-04T21:39:27.523Z,-0.76
2023-02-04T21:41:28.955Z,-0.76
2023-02-04T21:43:30.499Z,-0.78
2023-02-04T21:45:32.303Z,-0.87
2023-02-04T21:47:34.000Z,-0.78
2023-02-04T21:49:37.482Z,-0.69
2023-02-04T21:51:41.057Z,-0.71
2023-02-04T21:53:42.571Z,-0.61
2023-02-04T21:55:44.040Z,-0.66
2023-02-04T21:57:45.958Z,-0.89
2023-02-04T21:59:48.404Z,-0.79
2023-02-04T22:01:49.942Z,-0.87
2023-02-04T22:03:51.474Z,-0.94
2023-02-04T22:05:53.098Z,-0.96
2023-02-04T22:07:54.603Z,-0.77
2023-02-04T22:09:56.118Z,-0.74
2023-02-04T22:11:57.612Z,-0.73
2023-02-04T22:13:59.066Z,-0.76
2023-02-04T22:16:00.650Z,-0.71
2023-02-04T22:18:02.488Z,-0.69
2023-02-04T22:20:04.233Z,-0.60
2023-02-04T22:22:05.755Z,-0.65
2023-02-04T22:24:07.212Z,-0.73
2023-02-04T22:26:08.669Z,-0.74
2023-02-04T22:28:10.321Z,-0.76
2023-02-04T22:30:12.633Z,-0.96
2023-02-04T22:32:14.154Z,-0.89
2023-02-04T22:34:15.756Z,-0.89
2023-02-04T22:36:17.273Z,-0.88
2023-02-04T22:38:21.017Z,-0.93
2023-02-04T22:40:22.473Z,-1.04
2023-02-04T22:42:24.053Z,-0.93
2023-02-04T22:44:25.674Z,-0.99
2023-02-04T22:46:29.325Z,-1.05
2023-02-04T22:48:30.877Z,-1.04
2023-02-04T22:50:32.322Z,-1.07
2023-02-04T22:52:33.816Z,-1.05
2023-02-04T22:54:35.359Z,-1.38
2023-02-04T22:56:36.948Z,-1.36
2023-02-04T22:58:38.416Z,-1.33
2023-02-04T23:00:41.910Z,-1.37
2023-02-04T23:02:43.421Z,-1.59
2023-02-04T23:04:44.972Z,-1.66
2023-02-04T23:06:46.416Z,-1.74
2023-02-04T23:08:48.742Z,-1.87
2023-02-04T23:10:50.200Z,-1.75
2023-02-04T23:12:51.690Z,-1.58
2023-02-04T23:14:53.288Z,-1.42
2023-02-04T23:16:54.914Z,-1.45
2023-02-04T23:18:56.405Z,-1.48
2023-02-04T23:20:58.104Z,-1.54
2023-02-04T23:22:59.580Z,-1.62
2023-02-04T23:25:01.044Z,-1.69
2023-02-04T23:27:03.268Z,-1.69
2023-02-04T23:29:04.921Z,-1.73
2023-02-04T23:31:06.452Z,-2.21
2023-02-04T23:33:08.076Z,-2.13
2023-02-04T23:35:09.558Z,-1.97
2023-02-04T23:37:11.058Z,-1.90
2023-02-04T23:39:12.614Z,-1.81
2023-02-04T23:41:14.125Z,-1.83
2023-02-04T23:43:15.585Z,-1.82
2023-02-04T23:45:17.063Z,-1.89
2023-02-04T23:47:18.565Z,-1.80
2023-02-04T23:49:20.129Z,-1.67
2023-02-04T23:51:21.561Z,-1.75
2023-02-04T23:53:23.125Z,-1.84
2023-02-04T23:55:25.200Z,-1.94
2023-02-04T23:57:26.672Z,-1.92
2023-02-04T23:59:28.209Z,-1.93
